sensor_id;sensor_type;location;lat;lon;timestamp;pressure;altitude;pressure_sealevel;temperature;humidity
23899;BME280;20544;50.018;20.010;2023-05-20T00:00:47;99746.44;;;10.96;100.00
23899;BME280;20544;50.018;20.010;2023-05-20T00:04:05;99734.80;;;10.89;100.00
23899;BME280;20544;50.018;20.010;2023-05-20T00:07:22;99742.93;;;10.87;100.00
23899;BME280;20544;50.018;20.010;2023-05-20T00:10:39;99747.77;;;10.92;100.00
23899;BME280;20544;50.018;20.010;2023-05-20T00:13:57;99749.73;;;10.90;100.00
23899;BME280;20544;50.018;20.010;2023-05-20T00:17:13;99746.27;;;10.89;100.00
23899;BME280;20544;50.018;20.010;2023-05-20T00:20:30;99743.44;;;10.91;100.00
23899;BME280;20544;50.018;20.010;2023-05-20T00:23:49;99742.28;;;10.93;100.00
23899;BME280;20544;50.018;20.010;2023-05-20T00:27:07;99746.95;;;10.99;100.00
23899;BME280;20544;50.018;20.010;2023-05-20T00:30:23;99743.95;;;10.94;100.00
23899;BME280;20544;50.018;20.010;2023-05-20T00:33:40;99747.08;;;10.90;100.00
23899;BME280;20544;50.018;20.010;2023-05-20T00:36:57;99742.76;;;10.89;100.00
23899;BME280;20544;50.018;20.010;2023-05-20T00:40:15;99739.12;;;10.90;100.00
23899;BME280;20544;50.018;20.010;2023-05-20T00:43:33;99729.66;;;10.87;100.00
23899;BME280;20544;50.018;20.010;2023-05-20T00:46:51;99728.98;;;10.85;100.00
23899;BME280;20544;50.018;20.010;2023-05-20T00:50:11;99728.33;;;10.83;100.00
23899;BME280;20544;50.018;20.010;2023-05-20T00:53:27;99725.50;;;10.84;100.00
23899;BME280;20544;50.018;20.010;2023-05-20T00:56:44;99727.64;;;10.81;100.00
23899;BME280;20544;50.018;20.010;2023-05-20T01:00:02;99727.13;;;10.77;100.00
23899;BME280;20544;50.018;20.010;2023-05-20T01:03:22;99727.13;;;10.77;100.00
23899;BME280;20544;50.018;20.010;2023-05-20T01:06:39;99728.97;;;10.77;100.00
23899;BME280;20544;50.018;20.010;2023-05-20T01:09:57;99722.64;;;10.78;100.00
23899;BME280;20544;50.018;20.010;2023-05-20T01:13:16;99724.95;;;10.73;100.00
23899;BME280;20544;50.018;20.010;2023-05-20T01:16:36;99711.55;;;10.74;100.00
23899;BME280;20544;50.018;20.010;2023-05-20T01:19:55;99716.00;;;10.74;100.00
23899;BME280;20544;50.018;20.010;2023-05-20T01:23:15;99712.53;;;10.73;100.00
23899;BME280;20544;50.018;20.010;2023-05-20T01:26:32;99716.64;;;10.67;100.00
23899;BME280;20544;50.018;20.010;2023-05-20T01:29:51;99710.18;;;10.70;100.00
23899;BME280;20544;50.018;20.010;2023-05-20T01:33:11;99703.38;;;10.67;100.00
23899;BME280;20544;50.018;20.010;2023-05-20T01:36:31;99698.92;;;10.68;100.00
23899;BME280;20544;50.018;20.010;2023-05-20T01:39:51;99702.90;;;10.72;100.00
23899;BME280;20544;50.018;20.010;2023-05-20T01:43:09;99699.73;;;10.68;100.00
23899;BME280;20544;50.018;20.010;2023-05-20T01:46:27;99696.27;;;10.68;100.00
23899;BME280;20544;50.018;20.010;2023-05-20T01:49:47;99700.72;;;10.67;100.00
23899;BME280;20544;50.018;20.010;2023-05-20T01:53:04;99686.94;;;10.64;100.00
23899;BME280;20544;50.018;20.010;2023-05-20T01:56:21;99691.59;;;10.62;100.00
23899;BME280;20544;50.018;20.010;2023-05-20T01:59:38;99696.73;;;10.63;100.00
23899;BME280;20544;50.018;20.010;2023-05-20T02:02:55;99702.72;;;10.65;100.00
23899;BME280;20544;50.018;20.010;2023-05-20T02:06:13;99700.38;;;10.62;100.00
23899;BME280;20544;50.018;20.010;2023-05-20T02:09:29;99698.70;;;10.61;100.00
23899;BME280;20544;50.018;20.010;2023-05-20T02:12:46;99702.04;;;10.63;100.00
23899;BME280;20544;50.018;20.010;2023-05-20T02:16:04;99714.45;;;10.63;100.00
23899;BME280;20544;50.018;20.010;2023-05-20T02:19:22;99713.64;;;10.62;100.00
23899;BME280;20544;50.018;20.010;2023-05-20T02:22:40;99713.47;;;10.64;100.00
23899;BME280;20544;50.018;20.010;2023-05-20T02:25:57;99712.48;;;10.65;100.00
23899;BME280;20544;50.018;20.010;2023-05-20T02:29:15;99712.31;;;10.66;100.00
23899;BME280;20544;50.018;20.010;2023-05-20T02:32:33;99694.55;;;10.59;100.00
23899;BME280;20544;50.018;20.010;2023-05-20T02:35:51;99705.67;;;10.62;100.00
23899;BME280;20544;50.018;20.010;2023-05-20T02:39:08;99703.20;;;10.61;100.00
23899;BME280;20544;50.018;20.010;2023-05-20T02:42:27;99707.17;;;10.65;100.00
23899;BME280;20544;50.018;20.010;2023-05-20T02:45:44;99704.70;;;10.63;100.00
23899;BME280;20544;50.018;20.010;2023-05-20T02:49:01;99712.48;;;10.65;100.00
23899;BME280;20544;50.018;20.010;2023-05-20T02:52:18;99709.15;;;10.63;100.00
23899;BME280;20544;50.018;20.010;2023-05-20T02:55:37;99714.16;;;10.66;100.00
23899;BME280;20544;50.018;20.010;2023-05-20T02:58:55;99715.30;;;10.63;100.00
23899;BME280;20544;50.018;20.010;2023-05-20T03:02:13;99710.30;;;10.60;100.00
23899;BME280;20544;50.018;20.010;2023-05-20T03:05:31;99708.50;;;10.61;100.00
23899;BME280;20544;50.018;20.010;2023-05-20T03:08:50;99715.30;;;10.63;100.00
23899;BME280;20544;50.018;20.010;2023-05-20T03:12:07;99713.47;;;10.64;100.00
23899;BME280;20544;50.018;20.010;2023-05-20T03:15:24;99715.98;;;10.65;100.00
23899;BME280;20544;50.018;20.010;2023-05-20T03:18:41;99717.80;;;10.65;100.00
23899;BME280;20544;50.018;20.010;2023-05-20T03:21:58;99715.30;;;10.63;100.00
23899;BME280;20544;50.018;20.010;2023-05-20T03:25:16;99727.09;;;10.69;100.00
23899;BME280;20544;50.018;20.010;2023-05-20T03:28:33;99727.09;;;10.69;100.00
23899;BME280;20544;50.018;20.010;2023-05-20T03:31:52;99729.73;;;10.69;100.00
23899;BME280;20544;50.018;20.010;2023-05-20T03:35:10;99723.31;;;10.72;100.00
23899;BME280;20544;50.018;20.010;2023-05-20T03:38:28;99718.00;;;10.72;100.00
23899;BME280;20544;50.018;20.010;2023-05-20T03:41:45;99715.02;;;10.75;100.00
23899;BME280;20544;50.018;20.010;2023-05-20T03:45:02;99722.50;;;10.79;100.00
23899;BME280;20544;50.018;20.010;2023-05-20T03:48:24;99717.84;;;10.73;100.00
23899;BME280;20544;50.018;20.010;2023-05-20T03:51:41;99727.13;;;10.77;100.00
23899;BME280;20544;50.018;20.010;2023-05-20T03:54:58;99728.97;;;10.77;100.00
23899;BME280;20544;50.018;20.010;2023-05-20T03:58:15;99730.42;;;10.71;100.00
23899;BME280;20544;50.018;20.010;2023-05-20T04:01:33;99723.14;;;10.73;100.00
23899;BME280;20544;50.018;20.010;2023-05-20T04:04:52;99716.84;;;10.74;100.00
23899;BME280;20544;50.018;20.010;2023-05-20T04:08:10;99715.83;;;10.75;100.00
23899;BME280;20544;50.018;20.010;2023-05-20T04:11:28;99716.34;;;10.79;100.00
23899;BME280;20544;50.018;20.010;2023-05-20T04:14:45;99712.54;;;10.81;100.00
23899;BME280;20544;50.018;20.010;2023-05-20T04:18:04;99721.52;;;10.80;100.00
23899;BME280;20544;50.018;20.010;2023-05-20T04:21:21;99720.50;;;10.81;100.00
23899;BME280;20544;50.018;20.010;2023-05-20T04:24:38;99704.75;;;10.80;100.00
23899;BME280;20544;50.018;20.010;2023-05-20T04:27:56;99716.55;;;10.86;100.00
23899;BME280;20544;50.018;20.010;2023-05-20T04:31:14;99719.20;;;10.86;100.00
23899;BME280;20544;50.018;20.010;2023-05-20T04:34:34;99719.72;;;10.89;100.00
23899;BME280;20544;50.018;20.010;2023-05-20T04:37:51;99712.75;;;10.88;100.00
23899;BME280;20544;50.018;20.010;2023-05-20T04:41:09;99717.88;;;10.90;100.00
23899;BME280;20544;50.018;20.010;2023-05-20T04:44:29;99713.09;;;10.93;100.00
23899;BME280;20544;50.018;20.010;2023-05-20T04:47:48;99716.25;;;10.97;100.00
23899;BME280;20544;50.018;20.010;2023-05-20T04:51:05;99720.58;;;10.98;100.00
23899;BME280;20544;50.018;20.010;2023-05-20T04:54:22;99721.56;;;10.97;100.00
23899;BME280;20544;50.018;20.010;2023-05-20T04:57:41;99720.72;;;10.96;100.00
23899;BME280;20544;50.018;20.010;2023-05-20T05:00:58;99721.73;;;11.04;100.00
23899;BME280;20544;50.018;20.010;2023-05-20T05:04:14;99723.58;;;11.03;100.00
23899;BME280;20544;50.018;20.010;2023-05-20T05:07:32;99726.23;;;11.03;100.00
23899;BME280;20544;50.018;20.010;2023-05-20T05:10:51;99733.69;;;11.08;100.00
23899;BME280;20544;50.018;20.010;2023-05-20T05:14:08;99734.19;;;11.03;100.00
23899;BME280;20544;50.018;20.010;2023-05-20T05:17:25;99736.84;;;11.03;100.00
23899;BME280;20544;50.018;20.010;2023-05-20T05:20:44;99735.86;;;11.12;100.00
23899;BME280;20544;50.018;20.010;2023-05-20T05:24:01;99731.23;;;11.14;100.00
23899;BME280;20544;50.018;20.010;2023-05-20T05:27:17;99733.55;;;11.17;100.00
23899;BME280;20544;50.018;20.010;2023-05-20T05:30:35;99733.75;;;11.24;100.00
23899;BME280;20544;50.018;20.010;2023-05-20T05:33:51;99725.78;;;11.24;100.00
23899;BME280;20544;50.018;20.010;2023-05-20T05:37:11;99722.47;;;11.30;100.00
23899;BME280;20544;50.018;20.010;2023-05-20T05:40:28;99730.95;;;11.34;100.00
23899;BME280;20544;50.018;20.010;2023-05-20T05:43:48;99732.58;;;11.35;100.00
23899;BME280;20544;50.018;20.010;2023-05-20T05:47:09;99739.73;;;11.35;100.00
23899;BME280;20544;50.018;20.010;2023-05-20T05:50:26;99736.25;;;11.34;100.00
23899;BME280;20544;50.018;20.010;2023-05-20T05:53:44;99731.28;;;11.39;100.00
23899;BME280;20544;50.018;20.010;2023-05-20T05:57:01;99734.92;;;11.38;100.00
23899;BME280;20544;50.018;20.010;2023-05-20T06:00:21;99728.28;;;11.42;100.00
23899;BME280;20544;50.018;20.010;2023-05-20T06:03:38;99723.16;;;11.49;100.00
23899;BME280;20544;50.018;20.010;2023-05-20T06:06:55;99729.97;;;11.52;100.00
23899;BME280;20544;50.018;20.010;2023-05-20T06:10:15;99726.66;;;11.58;100.00
23899;BME280;20544;50.018;20.010;2023-05-20T06:13:32;99730.63;;;11.62;100.00
23899;BME280;20544;50.018;20.010;2023-05-20T06:16:49;99737.44;;;11.64;100.00
23899;BME280;20544;50.018;20.010;2023-05-20T06:20:08;99733.79;;;11.65;100.00
23899;BME280;20544;50.018;20.010;2023-05-20T06:23:26;99740.42;;;11.70;100.00
23899;BME280;20544;50.018;20.010;2023-05-20T06:26:44;99734.12;;;11.71;100.00
23899;BME280;20544;50.018;20.010;2023-05-20T06:30:10;99737.45;;;11.73;100.00
23899;BME280;20544;50.018;20.010;2023-05-20T06:33:28;99731.29;;;11.72;100.00
23899;BME280;20544;50.018;20.010;2023-05-20T06:37:03;99736.93;;;11.77;100.00
23899;BME280;20544;50.018;20.010;2023-05-20T06:40:25;99740.94;;;11.81;100.00
23899;BME280;20544;50.018;20.010;2023-05-20T06:43:42;99727.48;;;11.83;100.00
23899;BME280;20544;50.018;20.010;2023-05-20T06:47:09;99726.66;;;11.83;100.00
23899;BME280;20544;50.018;20.010;2023-05-20T06:50:28;99734.44;;;11.92;100.00
23899;BME280;20544;50.018;20.010;2023-05-20T06:53:45;99726.45;;;11.92;100.00
23899;BME280;20544;50.018;20.010;2023-05-20T06:57:02;99725.00;;;11.98;100.00
23899;BME280;20544;50.018;20.010;2023-05-20T07:00:21;99718.66;;;12.07;100.00
23899;BME280;20544;50.018;20.010;2023-05-20T07:03:38;99712.34;;;12.17;100.00
23899;BME280;20544;50.018;20.010;2023-05-20T07:06:58;99712.48;;;12.23;100.00
23899;BME280;20544;50.018;20.010;2023-05-20T07:10:17;99710.50;;;12.25;100.00
23899;BME280;20544;50.018;20.010;2023-05-20T07:13:34;99708.33;;;12.29;100.00
23899;BME280;20544;50.018;20.010;2023-05-20T07:16:57;99701.84;;;12.32;100.00
23899;BME280;20544;50.018;20.010;2023-05-20T07:20:16;99702.97;;;12.37;100.00
23899;BME280;20544;50.018;20.010;2023-05-20T07:23:40;99702.46;;;12.42;100.00
23899;BME280;20544;50.018;20.010;2023-05-20T07:26:57;99695.97;;;12.44;100.00
23899;BME280;20544;50.018;20.010;2023-05-20T07:30:14;99696.25;;;12.58;100.00
23899;BME280;20544;50.018;20.010;2023-05-20T07:33:33;99699.41;;;12.61;100.00
23899;BME280;20544;50.018;20.010;2023-05-20T07:36:51;99695.69;;;12.71;100.00
23899;BME280;20544;50.018;20.010;2023-05-20T07:40:11;99695.54;;;12.72;100.00
23899;BME280;20544;50.018;20.010;2023-05-20T07:43:30;99701.31;;;12.76;100.00
23899;BME280;20544;50.018;20.010;2023-05-20T07:46:47;99703.13;;;12.84;100.00
23899;BME280;20544;50.018;20.010;2023-05-20T07:50:05;99707.58;;;12.91;100.00
23899;BME280;20544;50.018;20.010;2023-05-20T07:53:23;99714.69;;;12.99;100.00
23899;BME280;20544;50.018;20.010;2023-05-20T07:56:39;99700.67;;;13.05;100.00
23899;BME280;20544;50.018;20.010;2023-05-20T07:59:57;99705.48;;;13.10;100.00
23899;BME280;20544;50.018;20.010;2023-05-20T08:03:17;99702.82;;;13.10;100.00
23899;BME280;20544;50.018;20.010;2023-05-20T08:06:37;99697.97;;;13.14;100.00
23899;BME280;20544;50.018;20.010;2023-05-20T08:09:59;99697.42;;;13.18;100.00
23899;BME280;20544;50.018;20.010;2023-05-20T08:13:22;99696.27;;;13.21;100.00
23899;BME280;20544;50.018;20.010;2023-05-20T08:16:40;99701.19;;;13.32;100.00
23899;BME280;20544;50.018;20.010;2023-05-20T08:20:03;99689.97;;;13.37;100.00
23899;BME280;20544;50.018;20.010;2023-05-20T08:23:21;99686.63;;;13.43;100.00
23899;BME280;20544;50.018;20.010;2023-05-20T08:26:40;99686.77;;;13.50;100.00
23899;BME280;20544;50.018;20.010;2023-05-20T08:29:58;99691.72;;;13.53;100.00
23899;BME280;20544;50.018;20.010;2023-05-20T08:33:18;99688.23;;;13.52;100.00
23899;BME280;20544;50.018;20.010;2023-05-20T08:36:36;99684.01;;;13.58;100.00
23899;BME280;20544;50.018;20.010;2023-05-20T08:39:56;99672.63;;;13.64;100.00
23899;BME280;20544;50.018;20.010;2023-05-20T08:43:23;99677.80;;;13.66;100.00
23899;BME280;20544;50.018;20.010;2023-05-20T08:46:48;99678.09;;;13.71;100.00
23899;BME280;20544;50.018;20.010;2023-05-20T08:50:11;99690.86;;;13.75;100.00
23899;BME280;20544;50.018;20.010;2023-05-20T08:53:30;99691.89;;;13.74;100.00
23899;BME280;20544;50.018;20.010;2023-05-20T08:56:51;99684.23;;;13.71;100.00
23899;BME280;20544;50.018;20.010;2023-05-20T09:00:14;99676.80;;;13.82;100.00
23899;BME280;20544;50.018;20.010;2023-05-20T09:03:34;99673.41;;;13.88;100.00
23899;BME280;20544;50.018;20.010;2023-05-20T09:06:51;99681.69;;;13.93;100.00
23899;BME280;20544;50.018;20.010;2023-05-20T09:10:10;99674.34;;;13.95;100.00
23899;BME280;20544;50.018;20.010;2023-05-20T09:13:31;99676.75;;;14.05;100.00
23899;BME280;20544;50.018;20.010;2023-05-20T09:16:49;99685.30;;;14.15;100.00
23899;BME280;20544;50.018;20.010;2023-05-20T09:20:09;99682.28;;;14.18;100.00
23899;BME280;20544;50.018;20.010;2023-05-20T09:23:30;99687.43;;;14.20;100.00
23899;BME280;20544;50.018;20.010;2023-05-20T09:26:49;99673.63;;;14.31;100.00
23899;BME280;20544;50.018;20.010;2023-05-20T09:30:10;99681.09;;;14.36;100.00
23899;BME280;20544;50.018;20.010;2023-05-20T09:33:30;99676.22;;;14.39;100.00
23899;BME280;20544;50.018;20.010;2023-05-20T09:36:45;99689.91;;;14.51;100.00
23899;BME280;20544;50.018;20.010;2023-05-20T09:40:05;99679.69;;;14.55;100.00
23899;BME280;20544;50.018;20.010;2023-05-20T09:43:26;99676.83;;;14.71;100.00
23899;BME280;20544;50.018;20.010;2023-05-20T09:46:45;99685.39;;;14.82;100.00
23899;BME280;20544;50.018;20.010;2023-05-20T09:50:07;99681.98;;;14.88;100.00
23899;BME280;20544;50.018;20.010;2023-05-20T09:53:26;99678.42;;;15.02;100.00
23899;BME280;20544;50.018;20.010;2023-05-20T09:56:43;99672.00;;;14.97;100.00
23899;BME280;20544;50.018;20.010;2023-05-20T10:00:02;99670.99;;;14.98;100.00
23899;BME280;20544;50.018;20.010;2023-05-20T10:03:25;99674.98;;;15.09;100.00
23899;BME280;20544;50.018;20.010;2023-05-20T10:06:58;99675.89;;;15.16;100.00
23899;BME280;20544;50.018;20.010;2023-05-20T10:10:28;99668.58;;;15.25;100.00
23899;BME280;20544;50.018;20.010;2023-05-20T10:14:12;99668.21;;;15.28;100.00
23899;BME280;20544;50.018;20.010;2023-05-20T10:17:45;99662.52;;;15.37;100.00
23899;BME280;20544;50.018;20.010;2023-05-20T10:21:13;99672.00;;;15.40;100.00
23899;BME280;20544;50.018;20.010;2023-05-20T10:24:35;99669.60;;;15.45;100.00
23899;BME280;20544;50.018;20.010;2023-05-20T10:28:02;99675.31;;;15.42;100.00
23899;BME280;20544;50.018;20.010;2023-05-20T10:31:24;99665.39;;;15.58;100.00
23899;BME280;20544;50.018;20.010;2023-05-20T10:34:48;99664.86;;;15.69;100.00
23899;BME280;20544;50.018;20.010;2023-05-20T10:38:12;99668.48;;;15.83;100.00
23899;BME280;20544;50.018;20.010;2023-05-20T10:41:29;99668.32;;;15.91;100.00
23899;BME280;20544;50.018;20.010;2023-05-20T10:44:46;99674.75;;;15.97;100.00
23899;BME280;20544;50.018;20.010;2023-05-20T10:48:03;99675.86;;;16.09;100.00
23899;BME280;20544;50.018;20.010;2023-05-20T10:51:21;99676.94;;;16.15;100.00
23899;BME280;20544;50.018;20.010;2023-05-20T10:54:43;99676.73;;;16.16;100.00
23899;BME280;20544;50.018;20.010;2023-05-20T10:58:00;99671.41;;;16.23;100.00
23899;BME280;20544;50.018;20.010;2023-05-20T11:01:18;99658.70;;;16.32;100.00
23899;BME280;20544;50.018;20.010;2023-05-20T11:04:37;99671.56;;;16.50;100.00
23899;BME280;20544;50.018;20.010;2023-05-20T11:08:01;99655.52;;;16.57;100.00
23899;BME280;20544;50.018;20.010;2023-05-20T11:11:21;99663.56;;;16.63;100.00
23899;BME280;20544;50.018;20.010;2023-05-20T11:14:38;99642.77;;;16.65;100.00
23899;BME280;20544;50.018;20.010;2023-05-20T11:17:58;99644.02;;;16.70;100.00
23899;BME280;20544;50.018;20.010;2023-05-20T11:21:15;99629.82;;;16.76;100.00
23899;BME280;20544;50.018;20.010;2023-05-20T11:24:34;99631.34;;;16.92;100.00
23899;BME280;20544;50.018;20.010;2023-05-20T11:27:51;99626.83;;;16.99;100.00
23899;BME280;20544;50.018;20.010;2023-05-20T11:31:08;99622.73;;;17.17;100.00
23899;BME280;20544;50.018;20.010;2023-05-20T11:34:31;99627.48;;;17.28;100.00
23899;BME280;20544;50.018;20.010;2023-05-20T11:37:54;99621.09;;;17.29;100.00
23899;BME280;20544;50.018;20.010;2023-05-20T11:41:11;99612.00;;;17.23;100.00
23899;BME280;20544;50.018;20.010;2023-05-20T11:44:29;99608.92;;;17.26;100.00
23899;BME280;20544;50.018;20.010;2023-05-20T11:47:46;99605.00;;;17.29;100.00
23899;BME280;20544;50.018;20.010;2023-05-20T11:51:15;99599.22;;;17.45;100.00
23899;BME280;20544;50.018;20.010;2023-05-20T11:54:35;99596.13;;;17.55;100.00
23899;BME280;20544;50.018;20.010;2023-05-20T11:57:53;99590.55;;;17.57;100.00
23899;BME280;20544;50.018;20.010;2023-05-20T12:01:13;99589.93;;;17.61;100.00
23899;BME280;20544;50.018;20.010;2023-05-20T12:04:32;99590.75;;;17.69;100.00
23899;BME280;20544;50.018;20.010;2023-05-20T12:07:49;99588.48;;;17.72;100.00
23899;BME280;20544;50.018;20.010;2023-05-20T12:11:06;99601.27;;;17.77;100.00
23899;BME280;20544;50.018;20.010;2023-05-20T12:14:23;99589.27;;;17.86;100.00
23899;BME280;20544;50.018;20.010;2023-05-20T12:17:47;99578.32;;;17.88;100.00
23899;BME280;20544;50.018;20.010;2023-05-20T12:21:04;99580.20;;;18.01;100.00
23899;BME280;20544;50.018;20.010;2023-05-20T12:24:21;99577.30;;;17.95;100.00
23899;BME280;20544;50.018;20.010;2023-05-20T12:27:38;99569.83;;;18.04;100.00
23899;BME280;20544;50.018;20.010;2023-05-20T12:30:56;99564.87;;;18.08;100.00
23899;BME280;20544;50.018;20.010;2023-05-20T12:34:13;99554.92;;;18.22;100.00
23899;BME280;20544;50.018;20.010;2023-05-20T12:37:30;99549.88;;;18.39;100.00
23899;BME280;20544;50.018;20.010;2023-05-20T12:40:47;99545.93;;;18.41;100.00
23899;BME280;20544;50.018;20.010;2023-05-20T12:44:04;99548.16;;;18.51;100.00
23899;BME280;20544;50.018;20.010;2023-05-20T12:47:21;99529.80;;;18.48;100.00
23899;BME280;20544;50.018;20.010;2023-05-20T12:50:38;99542.14;;;18.56;100.00
23899;BME280;20544;50.018;20.010;2023-05-20T12:53:56;99528.07;;;18.61;100.00
23899;BME280;20544;50.018;20.010;2023-05-20T12:57:12;99517.66;;;18.71;100.00
23899;BME280;20544;50.018;20.010;2023-05-20T13:00:29;99517.61;;;18.78;100.00
23899;BME280;20544;50.018;20.010;2023-05-20T13:03:46;99511.14;;;18.85;100.00
23899;BME280;20544;50.018;20.010;2023-05-20T13:07:04;99512.78;;;18.93;100.00
23899;BME280;20544;50.018;20.010;2023-05-20T13:10:21;99511.06;;;18.99;100.00
23899;BME280;20544;50.018;20.010;2023-05-20T13:13:38;99511.91;;;18.99;100.00
23899;BME280;20544;50.018;20.010;2023-05-20T13:16:54;99497.40;;;19.00;100.00
23899;BME280;20544;50.018;20.010;2023-05-20T13:20:13;99493.41;;;19.10;100.00
23899;BME280;20544;50.018;20.010;2023-05-20T13:23:29;99496.25;;;19.15;100.00
23899;BME280;20544;50.018;20.010;2023-05-20T13:26:46;99493.72;;;19.20;100.00
23899;BME280;20544;50.018;20.010;2023-05-20T13:30:03;99489.34;;;19.26;100.00
23899;BME280;20544;50.018;20.010;2023-05-20T13:33:21;99478.50;;;19.32;100.00
23899;BME280;20544;50.018;20.010;2023-05-20T13:36:38;99488.98;;;19.40;100.00
23899;BME280;20544;50.018;20.010;2023-05-20T13:39:56;99491.21;;;19.44;100.00
23899;BME280;20544;50.018;20.010;2023-05-20T13:43:13;99476.44;;;19.53;100.00
23899;BME280;20544;50.018;20.010;2023-05-20T13:46:29;99475.31;;;19.61;100.00
23899;BME280;20544;50.018;20.010;2023-05-20T13:49:46;99473.81;;;19.65;100.00
23899;BME280;20544;50.018;20.010;2023-05-20T13:53:03;99464.46;;;19.67;100.00
23899;BME280;20544;50.018;20.010;2023-05-20T13:56:21;99481.13;;;19.76;100.00
23899;BME280;20544;50.018;20.010;2023-05-20T13:59:38;99466.77;;;19.82;100.00
23899;BME280;20544;50.018;20.010;2023-05-20T14:02:55;99463.91;;;19.84;100.00
23899;BME280;20544;50.018;20.010;2023-05-20T14:06:13;99463.91;;;19.84;100.00
23899;BME280;20544;50.018;20.010;2023-05-20T14:09:30;99456.91;;;19.95;100.00
23899;BME280;20544;50.018;20.010;2023-05-20T14:12:46;99467.48;;;19.96;100.00
23899;BME280;20544;50.018;20.010;2023-05-20T14:16:04;99456.01;;;20.01;100.00
23899;BME280;20544;50.018;20.010;2023-05-20T14:19:21;99452.41;;;20.07;100.00
23899;BME280;20544;50.018;20.010;2023-05-20T14:22:38;99445.17;;;20.08;100.00
23899;BME280;20544;50.018;20.010;2023-05-20T14:25:54;99445.98;;;20.08;100.00
23899;BME280;20544;50.018;20.010;2023-05-20T14:29:11;99444.83;;;20.16;100.00
23899;BME280;20544;50.018;20.010;2023-05-20T14:32:28;99441.69;;;20.19;100.00
23899;BME280;20544;50.018;20.010;2023-05-20T14:35:45;99436.80;;;20.28;100.00
23899;BME280;20544;50.018;20.010;2023-05-20T14:39:03;99444.77;;;20.34;100.00
23899;BME280;20544;50.018;20.010;2023-05-20T14:42:20;99445.95;;;20.39;100.00
23899;BME280;20544;50.018;20.010;2023-05-20T14:45:37;99445.27;;;20.43;100.00
23899;BME280;20544;50.018;20.010;2023-05-20T14:48:55;99452.66;;;20.48;100.00
23899;BME280;20544;50.018;20.010;2023-05-20T14:52:11;99451.26;;;20.57;100.00
23899;BME280;20544;50.018;20.010;2023-05-20T14:55:28;99449.17;;;20.59;100.00
23899;BME280;20544;50.018;20.010;2023-05-20T14:58:45;99446.83;;;20.63;100.00
23899;BME280;20544;50.018;20.010;2023-05-20T15:02:03;99438.75;;;20.63;100.00
23899;BME280;20544;50.018;20.010;2023-05-20T15:05:22;99429.73;;;20.69;100.00
23899;BME280;20544;50.018;20.010;2023-05-20T15:08:39;99435.27;;;20.74;100.00
23899;BME280;20544;50.018;20.010;2023-05-20T15:11:56;99431.53;;;20.75;100.00
23899;BME280;20544;50.018;20.010;2023-05-20T15:15:13;99432.70;;;20.79;100.00
23899;BME280;20544;50.018;20.010;2023-05-20T15:18:30;99431.41;;;20.82;100.00
23899;BME280;20544;50.018;20.010;2023-05-20T15:21:47;99417.36;;;20.80;100.00
23899;BME280;20544;50.018;20.010;2023-05-20T15:25:05;99426.38;;;20.85;100.00
23899;BME280;20544;50.018;20.010;2023-05-20T15:28:22;99411.36;;;20.90;100.00
23899;BME280;20544;50.018;20.010;2023-05-20T15:34:42;99406.11;;;20.95;100.00
23899;BME280;20544;50.018;20.010;2023-05-20T15:37:59;99401.77;;;20.94;100.00
23899;BME280;20544;50.018;20.010;2023-05-20T15:41:16;99404.58;;;20.99;100.00
23899;BME280;20544;50.018;20.010;2023-05-20T15:44:34;99400.72;;;20.95;100.00
23899;BME280;20544;50.018;20.010;2023-05-20T15:47:51;99389.94;;;20.95;100.00
23899;BME280;20544;50.018;20.010;2023-05-20T15:51:08;99390.50;;;20.97;100.00
23899;BME280;20544;50.018;20.010;2023-05-20T15:54:26;99399.64;;;20.96;100.00
23899;BME280;20544;50.018;20.010;2023-05-20T15:57:43;99403.53;;;21.00;100.00
23899;BME280;20544;50.018;20.010;2023-05-20T16:01:00;99411.97;;;21.04;100.00
23899;BME280;20544;50.018;20.010;2023-05-20T16:04:17;99401.05;;;21.10;100.00
23899;BME280;20544;50.018;20.010;2023-05-20T16:07:34;99399.05;;;21.06;100.00
23899;BME280;20544;50.018;20.010;2023-05-20T16:10:51;99406.58;;;21.04;100.00
23899;BME280;20544;50.018;20.010;2023-05-20T16:14:08;99409.03;;;21.05;100.00
23899;BME280;20544;50.018;20.010;2023-05-20T16:17:25;99399.89;;;21.06;100.00
23899;BME280;20544;50.018;20.010;2023-05-20T16:20:42;99400.94;;;21.05;100.00
23899;BME280;20544;50.018;20.010;2023-05-20T16:24:00;99403.88;;;21.04;100.00
23899;BME280;20544;50.018;20.010;2023-05-20T16:27:17;99395.79;;;21.04;100.00
23899;BME280;20544;50.018;20.010;2023-05-20T16:30:35;99402.48;;;21.01;100.00
23899;BME280;20544;50.018;20.010;2023-05-20T16:33:52;99397.78;;;20.96;100.00
23899;BME280;20544;50.018;20.010;2023-05-20T16:37:10;99394.98;;;20.91;100.00
23899;BME280;20544;50.018;20.010;2023-05-20T16:40:27;99392.98;;;20.87;100.00
23899;BME280;20544;50.018;20.010;2023-05-20T16:43:43;99386.88;;;20.79;100.00
23899;BME280;20544;50.018;20.010;2023-05-20T16:47:00;99383.62;;;20.77;100.00
23899;BME280;20544;50.018;20.010;2023-05-20T16:50:17;99388.41;;;20.75;100.00
23899;BME280;20544;50.018;20.010;2023-05-20T16:53:34;99380.18;;;20.70;100.00
23899;BME280;20544;50.018;20.010;2023-05-20T16:56:51;99373.84;;;20.64;100.00
23899;BME280;20544;50.018;20.010;2023-05-20T17:00:10;99379.11;;;20.59;100.00
23899;BME280;20544;50.018;20.010;2023-05-20T17:03:30;99376.90;;;20.56;100.00
23899;BME280;20544;50.018;20.010;2023-05-20T17:06:47;99386.95;;;20.49;100.00